Time;durP1;ratioP1;P1;durP2;ratioP2;P2;SDS_P1;SDS_P2;PMS_P1;PMS_P2;Temp;Humidity;BMP_temperature;BMP_pressure;BME280_temperature;BME280_humidity;BME280_pressure;Samples;Min_cycle;Max_cycle;Signal;HPM_P1;HPM_P2
2023/09/03 00:01:46;;;;;;;42.53;16.90;;;;;;;28.13;nan;97788.41;4910679;29;20044;-64
2023/09/03 00:04:16;;;;;;;37.53;15.90;;;;;;;28.13;nan;97795.78;4917892;29;20066;-64
2023/09/03 00:06:46;;;;;;;39.80;14.68;;;;;;;28.04;nan;97792.28;4916789;29;20054;-65
2023/09/03 00:09:16;;;;;;;36.72;16.15;;;;;;;27.94;nan;97806.25;4946697;29;20039;-65
2023/09/03 00:11:46;;;;;;;39.50;16.70;;;;;;;27.89;nan;97809.94;4933165;29;20065;-65
2023/09/03 00:14:15;;;;;;;41.05;17.33;;;;;;;27.93;nan;97810.09;4924898;29;20061;-65
2023/09/03 00:16:45;;;;;;;33.55;16.60;;;;;;;27.96;nan;97810.25;4932362;29;20634;-65
2023/09/03 00:19:14;;;;;;;33.58;15.75;;;;;;;27.95;nan;97807.84;4941356;29;20107;-65
2023/09/03 00:21:44;;;;;;;30.88;15.27;;;;;;;27.91;nan;97817.78;4890835;29;20087;-64
2023/09/03 00:24:13;;;;;;;32.53;14.35;;;;;;;27.83;nan;97805.84;4900964;29;20039;-65
2023/09/03 00:26:43;;;;;;;38.78;16.13;;;;;;;27.86;nan;97809.81;4931401;29;20044;-65
2023/09/03 00:29:12;;;;;;;40.75;15.00;;;;;;;27.84;nan;97812.84;4934383;29;20051;-65
2023/09/03 00:31:41;;;;;;;36.75;15.07;;;;;;;27.86;nan;97813.34;4914045;29;20111;-65
2023/09/03 00:34:11;;;;;;;38.78;16.52;;;;;;;27.83;nan;97818.63;4940011;29;20050;-66
2023/09/03 00:36:41;;;;;;;40.58;15.13;;;;;;;27.82;nan;97817.84;4925535;29;20075;-65
2023/09/03 00:39:10;;;;;;;44.10;15.88;;;;;;;27.80;nan;97817.34;4911683;29;20067;-65
2023/09/03 00:41:42;;;;;;;35.83;15.37;;;;;;;27.81;nan;97820.88;4930294;29;20059;-65
2023/09/03 00:44:15;;;;;;;49.17;16.90;;;;;;;27.79;nan;97820.41;4932722;29;20063;-65
2023/09/03 00:46:45;;;;;;;41.38;15.57;;;;;;;27.81;nan;97829.03;4931633;29;20058;-65
2023/09/03 00:49:22;;;;;;;38.38;17.55;;;;;;;27.76;nan;97826.50;4910337;29;20043;-65
2023/09/03 00:51:53;;;;;;;34.78;14.88;;;;;;;27.73;nan;97832.59;4916414;29;20106;-65
2023/09/03 00:54:27;;;;;;;33.50;15.43;;;;;;;27.77;nan;97834.34;4921138;29;20055;-65
2023/09/03 00:56:57;;;;;;;47.40;16.65;;;;;;;27.75;nan;97836.56;4945085;29;20040;-65
2023/09/03 00:59:29;;;;;;;52.63;16.77;;;;;;;27.77;nan;97838.97;4895605;29;20047;-65
2023/09/03 01:01:59;;;;;;;33.53;14.55;;;;;;;27.82;nan;97845.06;4915500;29;20130;-65
2023/09/03 01:04:29;;;;;;;37.70;14.52;;;;;;;27.81;nan;97840.72;4941742;29;20067;-65
2023/09/03 01:07:16;;;;;;;41.03;14.57;;;;;;;27.84;nan;97850.19;4928594;29;20039;-65
2023/09/03 01:09:46;;;;;;;37.17;14.48;;;;;;;27.84;nan;97845.50;4927617;29;20122;-65
2023/09/03 01:12:25;;;;;;;33.83;14.80;;;;;;;27.85;nan;97847.13;4908042;29;20735;-65
2023/09/03 01:15:09;;;;;;;29.00;13.52;;;;;;;27.90;nan;97849.66;4920264;29;20486;-65
2023/09/03 01:17:49;;;;;;;34.53;15.43;;;;;;;27.96;nan;97842.13;4934471;29;20602;-65
2023/09/03 01:20:26;;;;;;;40.05;14.43;;;;;;;28.04;nan;97842.09;4905745;29;20059;-65
2023/09/03 01:23:17;;;;;;;32.60;12.90;;;;;;;28.15;nan;97847.19;4913026;29;20050;-65
2023/09/03 01:26:24;;;;;;;35.83;13.88;;;;;;;28.22;nan;97853.72;4930307;29;20047;-65
2023/09/03 01:28:54;;;;;;;40.63;14.52;;;;;;;28.26;nan;97862.84;4920578;28;20531;-65
2023/09/03 01:31:24;;;;;;;42.88;13.70;;;;;;;28.33;nan;97863.09;4911590;29;20050;-65
2023/09/03 01:34:12;;;;;;;36.28;13.95;;;;;;;28.40;nan;97874.31;4918500;29;20058;-65
2023/09/03 01:36:44;;;;;;;38.70;13.05;;;;;;;28.45;nan;97871.41;4925300;29;20083;-65
2023/09/03 01:39:16;;;;;;;41.85;13.82;;;;;;;28.61;nan;97873.53;4928422;29;20054;-65
2023/09/03 01:41:46;;;;;;;36.10;12.90;;;;;;;28.64;nan;97876.41;4911852;29;20054;-65
2023/09/03 01:44:15;;;;;;;35.13;12.43;;;;;;;28.67;nan;97869.50;4907019;29;20463;-65
2023/09/03 01:46:51;;;;;;;30.83;11.15;;;;;;;28.72;nan;97870.16;4912276;29;20054;-65
2023/09/03 01:49:55;;;;;;;30.48;11.20;;;;;;;28.77;nan;97866.41;4927827;29;20050;-65
2023/09/03 01:53:07;;;;;;;37.53;12.00;;;;;;;28.80;nan;97871.22;4896062;29;20047;-66
2023/09/03 01:55:42;;;;;;;26.52;10.05;;;;;;;28.93;nan;97879.13;4898400;29;20086;-66
2023/09/03 01:58:14;;;;;;;36.15;10.73;;;;;;;28.99;nan;97875.06;4902633;29;20131;-66
2023/09/03 02:00:46;;;;;;;26.52;9.93;;;;;;;29.11;nan;97882.53;4892684;29;20062;-66
2023/09/03 02:03:17;;;;;;;31.67;10.18;;;;;;;29.14;nan;97881.84;4911638;29;20123;-66
2023/09/03 02:05:47;;;;;;;28.85;9.60;;;;;;;29.21;nan;97875.88;4929935;29;20055;-66
2023/09/03 02:08:16;;;;;;;28.75;9.88;;;;;;;29.31;nan;97881.72;4929008;29;20139;-66
2023/09/03 02:10:46;;;;;;;35.58;9.43;;;;;;;29.32;nan;97886.06;4911292;29;20055;-66
2023/09/03 02:13:21;;;;;;;29.70;10.10;;;;;;;29.52;nan;97895.31;4913642;29;20527;-66
2023/09/03 02:15:50;;;;;;;39.92;9.90;;;;;;;29.69;nan;97897.13;4927885;29;20062;-65
2023/09/03 02:18:19;;;;;;;32.67;10.63;;;;;;;29.90;nan;97906.06;4928538;29;20059;-65
2023/09/03 02:20:49;;;;;;;34.15;11.40;;;;;;;30.03;nan;97902.22;4912455;29;20118;-66
2023/09/03 02:23:18;;;;;;;32.35;10.73;;;;;;;30.19;nan;97911.34;4910158;29;20062;-66
2023/09/03 02:25:47;;;;;;;30.58;10.10;;;;;;;30.37;nan;97905.66;4912572;29;20048;-65
2023/09/03 02:28:17;;;;;;;31.10;9.30;;;;;;;30.39;nan;97900.66;4906365;29;20055;-65
2023/09/03 02:30:47;;;;;;;30.83;10.25;;;;;;;30.39;nan;97897.94;4927701;29;20047;-65
2023/09/03 02:33:18;;;;;;;35.70;11.75;;;;;;;30.44;nan;97894.97;4927943;29;20051;-65
2023/09/03 02:35:49;;;;;;;33.63;11.27;;;;;;;30.46;nan;97901.72;4930053;29;20048;-65
2023/09/03 02:38:19;;;;;;;31.85;11.15;;;;;;;30.53;nan;97904.69;4910032;29;20051;-66
2023/09/03 02:40:49;;;;;;;34.72;10.50;;;;;;;30.77;nan;97909.34;4921367;29;20052;-65
2023/09/03 02:43:19;;;;;;;29.35;9.93;;;;;;;30.89;nan;97914.78;4913130;29;20046;-65
2023/09/03 02:45:48;;;;;;;36.15;9.70;;;;;;;30.83;nan;97921.63;4928167;29;20071;-66
2023/09/03 02:48:18;;;;;;;31.48;9.55;;;;;;;30.83;nan;97915.38;4931519;29;20139;-65
2023/09/03 02:51:03;;;;;;;39.53;10.75;;;;;;;30.98;nan;97920.91;4909222;29;20103;-66
2023/09/03 02:53:33;;;;;;;40.35;10.07;;;;;;;30.97;nan;97924.81;4912035;29;20086;-66
2023/09/03 02:56:03;;;;;;;35.40;10.70;;;;;;;30.97;nan;97915.81;4928942;29;20132;-65
2023/09/03 02:58:33;;;;;;;33.55;9.93;;;;;;;31.02;nan;97929.28;4917942;29;20067;-65
2023/09/03 03:01:10;;;;;;;36.40;9.68;;;;;;;31.03;nan;97926.19;4927419;29;20103;-66
2023/09/03 03:03:41;;;;;;;39.13;9.70;;;;;;;31.10;nan;97928.34;4905583;29;20079;-65
2023/09/03 03:06:11;;;;;;;37.45;10.80;;;;;;;31.24;nan;97927.97;4924671;29;20047;-65
2023/09/03 03:08:41;;;;;;;31.65;8.73;;;;;;;31.28;nan;97929.69;4927813;29;20065;-65
2023/09/03 03:11:15;;;;;;;35.42;9.48;;;;;;;31.41;nan;97933.16;4926089;29;20476;-65
2023/09/03 03:13:55;;;;;;;29.20;8.07;;;;;;;31.37;nan;97933.06;4927407;29;20074;-65
2023/09/03 03:16:30;;;;;;;23.92;8.02;;;;;;;31.20;nan;97945.06;4910454;29;20753;-64
2023/09/03 03:19:03;;;;;;;34.08;8.15;;;;;;;31.19;nan;97956.38;4902629;29;20555;-65
2023/09/03 03:21:36;;;;;;;32.53;8.45;;;;;;;31.20;nan;97953.28;4916270;29;20222;-65
2023/09/03 03:24:06;;;;;;;32.50;7.60;;;;;;;31.10;nan;97948.31;4929178;29;20048;-65
2023/09/03 03:26:38;;;;;;;35.45;8.88;;;;;;;31.33;nan;97942.31;4944725;29;20044;-65
2023/09/03 03:29:13;;;;;;;31.20;7.55;;;;;;;31.16;nan;97943.38;4913573;29;20644;-65
2023/09/03 03:31:51;;;;;;;21.77;7.45;;;;;;;31.39;nan;97949.13;4941492;29;20428;-65
2023/09/03 03:34:21;;;;;;;28.85;8.50;;;;;;;31.45;nan;97945.00;4914987;29;20353;-66
2023/09/03 03:36:55;;;;;;;24.55;7.80;;;;;;;31.46;nan;97954.81;4899818;29;20063;-66
2023/09/03 03:39:24;;;;;;;31.90;9.38;;;;;;;31.31;nan;97955.53;4914153;29;20147;-65
2023/09/03 03:41:54;;;;;;;30.33;8.25;;;;;;;31.44;nan;97946.16;4924512;28;20067;-66
2023/09/03 03:44:23;;;;;;;43.03;10.07;;;;;;;31.45;nan;97947.75;4912118;29;20054;-65
2023/09/03 03:46:52;;;;;;;25.33;8.45;;;;;;;31.57;nan;97945.00;4931128;29;20060;-65
2023/09/03 03:49:23;;;;;;;26.88;9.25;;;;;;;31.57;nan;97947.72;4913283;29;20051;-65
2023/09/03 03:51:53;;;;;;;26.45;8.68;;;;;;;31.65;nan;97955.00;4900071;29;20825;-65
2023/09/03 03:54:22;;;;;;;29.42;8.93;;;;;;;31.85;nan;97954.00;4898279;29;20499;-65
2023/09/03 03:56:54;;;;;;;29.60;8.90;;;;;;;31.88;nan;97956.03;4928656;29;20131;-66
2023/09/03 03:59:24;;;;;;;30.70;9.32;;;;;;;31.86;nan;97961.09;4913385;29;20582;-65
2023/09/03 04:01:54;;;;;;;31.55;10.27;;;;;;;31.91;nan;97954.56;4914030;29;20055;-65
2023/09/03 04:04:26;;;;;;;26.13;10.02;;;;;;;31.96;nan;97960.56;4902511;29;20047;-66
2023/09/03 04:06:56;;;;;;;31.90;9.38;;;;;;;32.17;nan;97965.06;4913322;29;20375;-65
2023/09/03 04:09:25;;;;;;;30.33;8.93;;;;;;;32.23;nan;97963.63;4928853;29;20126;-66
2023/09/03 04:11:55;;;;;;;24.70;8.77;;;;;;;32.32;nan;97958.78;4905228;29;20499;-65
2023/09/03 04:14:24;;;;;;;26.55;9.73;;;;;;;32.31;nan;97959.94;4925914;29;20158;-65
2023/09/03 04:16:53;;;;;;;25.17;8.75;;;;;;;32.43;nan;97968.88;4910548;29;20067;-65
2023/09/03 04:19:23;;;;;;;27.80;8.43;;;;;;;32.49;nan;97961.16;4899875;29;20048;-65
2023/09/03 04:21:54;;;;;;;27.30;8.05;;;;;;;32.59;nan;97968.88;4929876;29;20080;-65
2023/09/03 04:24:23;;;;;;;31.90;8.45;;;;;;;32.68;nan;97957.75;4925357;29;20044;-65
2023/09/03 04:26:52;;;;;;;24.25;8.07;;;;;;;32.77;nan;97956.41;4927065;29;20118;-65
2023/09/03 04:29:21;;;;;;;21.45;7.78;;;;;;;32.74;nan;97950.84;4928576;29;20047;-65
2023/09/03 04:31:51;;;;;;;19.30;6.43;;;;;;;32.94;nan;97960.72;4905181;29;20055;-65
2023/09/03 04:34:21;;;;;;;20.67;5.43;;;;;;;32.97;nan;97958.03;4926112;29;20712;-64
2023/09/03 04:36:50;;;;;;;20.38;5.85;;;;;;;33.16;nan;97968.31;4911703;29;20142;-65
2023/09/03 04:39:19;;;;;;;18.08;5.65;;;;;;;33.19;nan;97970.34;4927882;29;20424;-66
2023/09/03 04:41:49;;;;;;;27.92;6.80;;;;;;;33.46;nan;97967.78;4926058;29;20400;-64
2023/09/03 04:44:18;;;;;;;20.65;6.53;;;;;;;33.75;nan;97967.22;4911050;29;20146;-65
2023/09/03 04:46:50;;;;;;;21.02;6.93;;;;;;;33.75;nan;97965.28;4913270;29;20456;-65
2023/09/03 04:49:21;;;;;;;24.83;6.90;;;;;;;34.04;nan;97968.56;4914048;29;20043;-65
2023/09/03 04:51:53;;;;;;;21.30;6.70;;;;;;;33.98;nan;97970.03;4928998;29;20059;-65
2023/09/03 04:54:23;;;;;;;23.40;5.40;;;;;;;34.42;nan;97975.97;4913947;29;20062;-65
2023/09/03 04:56:53;;;;;;;20.42;6.10;;;;;;;34.97;nan;97972.56;4916025;29;20079;-66
2023/09/03 04:59:22;;;;;;;21.63;6.28;;;;;;;34.81;nan;97982.13;4911465;29;20073;-65
2023/09/03 05:01:52;;;;;;;17.70;6.28;;;;;;;35.00;nan;97980.09;4929438;29;20043;-65
2023/09/03 05:04:22;;;;;;;21.83;6.30;;;;;;;35.11;nan;97972.78;4910466;29;20059;-66
2023/09/03 05:06:51;;;;;;;24.20;6.80;;;;;;;35.37;nan;97974.72;4914646;29;20143;-65
2023/09/03 05:09:22;;;;;;;20.92;6.68;;;;;;;35.09;nan;97974.31;4893166;29;20047;-66
2023/09/03 05:11:54;;;;;;;19.55;8.02;;;;;;;35.42;nan;97976.38;4929445;29;20066;-65
2023/09/03 05:14:27;;;;;;;23.35;7.28;;;;;;;36.02;nan;97982.66;4925545;29;20059;-67
2023/09/03 05:16:57;;;;;;;22.92;6.65;;;;;;;35.82;nan;97986.72;4916051;29;20102;-66
2023/09/03 05:19:27;;;;;;;20.35;5.55;;;;;;;35.71;nan;97983.06;4913929;29;20706;-65
2023/09/03 05:21:58;;;;;;;23.05;5.57;;;;;;;35.57;nan;97978.16;4905436;29;20110;-65
2023/09/03 05:24:28;;;;;;;28.73;7.75;;;;;;;35.78;nan;97977.63;4912871;29;20055;-65
2023/09/03 05:27:00;;;;;;;23.55;6.95;;;;;;;35.99;nan;97983.38;4927922;29;20538;-65
2023/09/03 05:29:30;;;;;;;31.50;7.57;;;;;;;36.13;nan;97975.28;4901252;29;20047;-65
2023/09/03 05:31:59;;;;;;;17.13;5.22;;;;;;;35.82;nan;97968.22;4901891;29;20112;-65
2023/09/03 05:34:29;;;;;;;23.50;5.80;;;;;;;36.27;nan;97989.22;4905897;29;20492;-65
2023/09/03 05:37:00;;;;;;;21.38;6.97;;;;;;;36.35;nan;97979.06;4914318;29;20138;-66
2023/09/03 05:39:31;;;;;;;19.50;5.50;;;;;;;36.17;nan;97975.31;4913946;29;20102;-66
2023/09/03 05:42:00;;;;;;;21.50;6.63;;;;;;;36.00;nan;97974.75;4914299;29;20055;-65
2023/09/03 05:44:29;;;;;;;17.40;5.30;;;;;;;36.16;nan;97976.53;4926808;29;20058;-65
2023/09/03 05:46:59;;;;;;;24.50;5.90;;;;;;;36.46;nan;97974.44;4924019;29;20099;-66
2023/09/03 05:49:38;;;;;;;22.17;5.75;;;;;;;36.35;nan;97971.56;4927944;29;20051;-65
2023/09/03 05:52:10;;;;;;;20.20;5.10;;;;;;;36.69;nan;97966.75;4898537;29;20713;-66
2023/09/03 05:54:39;;;;;;;17.85;6.00;;;;;;;36.44;nan;97968.50;4911676;29;20062;-65
2023/09/03 05:57:09;;;;;;;19.75;6.00;;;;;;;36.16;nan;97965.50;4928111;29;20059;-65
2023/09/03 05:59:39;;;;;;;24.48;6.00;;;;;;;36.22;nan;97969.47;4912741;29;20051;-65
2023/09/03 06:02:09;;;;;;;20.02;5.53;;;;;;;36.44;nan;97966.53;4910463;29;20111;-65
2023/09/03 06:04:39;;;;;;;22.60;6.78;;;;;;;36.28;nan;97960.47;4925747;29;20135;-66
2023/09/03 06:07:09;;;;;;;24.65;7.07;;;;;;;36.41;nan;97967.31;4907297;29;20048;-66
2023/09/03 06:09:39;;;;;;;24.50;6.57;;;;;;;36.18;nan;97952.91;4925006;29;20051;-64
2023/09/03 06:12:09;;;;;;;21.38;6.55;;;;;;;36.51;nan;97954.78;4925479;29;20063;-65
2023/09/03 06:14:39;;;;;;;17.63;5.90;;;;;;;36.58;nan;97963.09;4920215;29;20484;-64
2023/09/03 06:17:08;;;;;;;19.27;5.35;;;;;;;36.56;nan;97957.16;4924375;29;20075;-64
2023/09/03 06:19:38;;;;;;;22.27;4.90;;;;;;;36.91;nan;97951.16;4928515;29;20487;-64
2023/09/03 06:22:07;;;;;;;23.90;5.82;;;;;;;36.93;nan;97946.03;4926117;29;20047;-64
2023/09/03 06:24:37;;;;;;;24.02;6.57;;;;;;;36.44;nan;97951.94;4923360;29;20071;-64
2023/09/03 06:27:06;;;;;;;23.05;6.25;;;;;;;36.37;nan;97949.13;4924818;29;20048;-65
2023/09/03 06:29:35;;;;;;;25.17;5.50;;;;;;;36.34;nan;97945.16;4925948;29;20146;-64
2023/09/03 06:32:05;;;;;;;14.27;5.20;;;;;;;36.24;nan;97945.88;4921621;29;20554;-64
2023/09/03 06:34:35;;;;;;;22.15;4.70;;;;;;;36.23;nan;97937.97;4925849;29;20055;-63
2023/09/03 06:37:04;;;;;;;19.90;5.30;;;;;;;36.17;nan;97939.47;4925657;29;20119;-63
2023/09/03 06:39:33;;;;;;;14.98;4.60;;;;;;;36.53;nan;97935.84;4920192;29;20055;-64
2023/09/03 06:42:03;;;;;;;20.20;4.78;;;;;;;36.42;nan;97935.78;4928104;29;20115;-65
2023/09/03 06:44:33;;;;;;;12.23;4.25;;;;;;;36.12;nan;97931.53;4927911;29;20066;-65
2023/09/03 06:47:02;;;;;;;14.85;3.65;;;;;;;36.30;nan;97927.78;4927714;29;20052;-64
2023/09/03 06:49:31;;;;;;;15.95;4.45;;;;;;;36.44;nan;97916.88;4908236;29;20060;-63
2023/09/03 06:52:03;;;;;;;15.15;4.95;;;;;;;36.53;nan;97916.53;4938845;29;20138;-64
2023/09/03 06:54:33;;;;;;;16.30;4.38;;;;;;;36.27;nan;97917.53;4927222;29;20071;-64
2023/09/03 06:57:05;;;;;;;15.60;5.88;;;;;;;36.23;nan;97913.16;4929477;29;20407;-65
2023/09/03 06:59:46;;;;;;;19.27;5.47;;;;;;;36.16;nan;97911.09;4914863;29;20059;-63
2023/09/03 07:02:15;;;;;;;14.93;5.45;;;;;;;36.32;nan;97903.38;4933333;29;20063;-64
2023/09/03 07:04:44;;;;;;;17.23;4.88;;;;;;;36.21;nan;97902.47;4931047;29;20047;-64
2023/09/03 07:07:14;;;;;;;11.05;4.18;;;;;;;36.15;nan;97900.47;4924898;29;20114;-64
2023/09/03 07:09:43;;;;;;;20.67;5.10;;;;;;;36.07;nan;97901.56;4930513;29;20063;-63
2023/09/03 07:12:13;;;;;;;20.02;5.93;;;;;;;36.23;nan;97897.38;4913455;29;20048;-64
2023/09/03 07:14:42;;;;;;;24.92;5.93;;;;;;;36.23;nan;97894.63;4926463;29;20138;-64
2023/09/03 07:17:12;;;;;;;20.63;4.82;;;;;;;36.12;nan;97890.19;4932923;29;20055;-64
2023/09/03 07:19:41;;;;;;;19.05;5.50;;;;;;;36.05;nan;97879.88;4911412;29;20416;-63
2023/09/03 07:22:11;;;;;;;22.88;5.75;;;;;;;36.12;nan;97881.91;4934467;29;20052;-66
2023/09/03 07:24:40;;;;;;;19.50;4.65;;;;;;;36.12;nan;97876.38;4925701;29;20055;-65
2023/09/03 07:27:10;;;;;;;19.05;5.28;;;;;;;36.00;nan;97869.19;4926868;29;20067;-64
2023/09/03 07:29:39;;;;;;;21.92;4.80;;;;;;;36.17;nan;97867.78;4928730;29;20130;-64
2023/09/03 07:32:10;;;;;;;23.75;4.95;;;;;;;36.00;nan;97871.94;4922484;29;20465;-63
2023/09/03 07:34:40;;;;;;;16.48;5.75;;;;;;;36.05;nan;97868.84;4933770;29;20051;-67
2023/09/03 07:37:09;;;;;;;19.13;4.55;;;;;;;35.98;nan;97868.78;4920043;29;20059;-65
2023/09/03 07:39:39;;;;;;;18.42;4.68;;;;;;;35.91;nan;97855.72;4919054;29;20063;-63
2023/09/03 07:42:09;;;;;;;14.65;4.03;;;;;;;35.93;nan;97858.09;4942299;29;20133;-66
2023/09/03 07:44:39;;;;;;;25.30;4.88;;;;;;;35.97;nan;97854.19;4895973;29;20508;-65
2023/09/03 07:47:08;;;;;;;18.25;5.32;;;;;;;35.89;nan;97847.00;4924305;29;20142;-68
2023/09/03 07:49:38;;;;;;;16.15;4.15;;;;;;;35.65;nan;97847.59;4932387;29;20109;-64
2023/09/03 07:52:07;;;;;;;13.20;4.15;;;;;;;35.66;nan;97843.66;4930983;29;20055;-64
2023/09/03 07:54:36;;;;;;;19.10;4.40;;;;;;;35.69;nan;97844.84;4938657;29;20056;-65
2023/09/03 07:57:06;;;;;;;17.00;5.20;;;;;;;35.68;nan;97840.50;4918008;29;20473;-64
2023/09/03 07:59:35;;;;;;;18.00;4.50;;;;;;;35.70;nan;97838.97;4925106;29;20791;-65
2023/09/03 08:02:06;;;;;;;19.92;4.78;;;;;;;35.55;nan;97832.50;4936285;29;20039;-65
2023/09/03 08:04:37;;;;;;;13.73;3.95;;;;;;;35.59;nan;97832.53;4930710;29;20598;-65
2023/09/03 08:07:09;;;;;;;17.50;4.68;;;;;;;35.60;nan;97823.88;4908515;28;20051;-65
2023/09/03 08:09:38;;;;;;;30.00;4.78;;;;;;;35.56;nan;97828.56;4925442;29;20058;-65
2023/09/03 08:12:08;;;;;;;17.08;5.05;;;;;;;35.54;nan;97814.38;4912865;29;20131;-65
2023/09/03 08:14:37;;;;;;;21.85;4.82;;;;;;;35.53;nan;97823.81;4922544;29;20511;-65
2023/09/03 08:17:07;;;;;;;22.25;4.75;;;;;;;35.68;nan;97813.75;4929430;29;20111;-64
2023/09/03 08:19:36;;;;;;;17.58;3.75;;;;;;;35.49;nan;97811.97;4915614;29;20110;-65
2023/09/03 08:22:05;;;;;;;19.88;4.15;;;;;;;35.56;nan;97808.50;4912507;29;20356;-65
2023/09/03 08:24:34;;;;;;;33.15;6.60;;;;;;;35.66;nan;97812.56;4902706;29;20067;-65
2023/09/03 08:27:05;;;;;;;16.02;4.20;;;;;;;35.59;nan;97800.25;4909808;29;20065;-65
2023/09/03 08:29:35;;;;;;;17.98;4.20;;;;;;;35.38;nan;97797.28;4920779;29;20082;-65
2023/09/03 08:32:04;;;;;;;18.05;4.38;;;;;;;35.31;nan;97796.44;4919570;29;20130;-65
2023/09/03 08:34:34;;;;;;;15.95;5.38;;;;;;;35.48;nan;97796.63;4928714;29;20056;-64
2023/09/03 08:37:03;;;;;;;18.63;4.32;;;;;;;35.36;nan;97790.59;4911809;29;20087;-65
2023/09/03 08:39:32;;;;;;;21.88;5.32;;;;;;;35.37;nan;97794.91;4904627;29;20052;-65
2023/09/03 08:42:03;;;;;;;14.45;4.53;;;;;;;35.24;nan;97786.13;4911121;29;20058;-65
2023/09/03 08:44:42;;;;;;;18.30;5.38;;;;;;;35.38;nan;97786.28;4922157;29;20741;-66
2023/09/03 08:47:18;;;;;;;18.88;5.15;;;;;;;35.33;nan;97781.09;4924243;29;20062;-65
2023/09/03 08:49:48;;;;;;;21.20;4.78;;;;;;;35.39;nan;97776.84;4916899;29;20984;-65
2023/09/03 08:52:27;;;;;;;19.23;4.47;;;;;;;35.46;nan;97779.66;4918370;29;20066;-65
2023/09/03 08:54:57;;;;;;;16.98;4.95;;;;;;;35.30;nan;97772.81;4921682;29;20067;-66
2023/09/03 08:57:30;;;;;;;18.35;4.80;;;;;;;35.41;nan;97773.69;4927982;29;20467;-65
2023/09/03 09:00:00;;;;;;;15.07;4.32;;;;;;;35.46;nan;97771.41;4924934;29;20040;-65
2023/09/03 09:02:31;;;;;;;20.80;4.85;;;;;;;35.51;nan;97762.00;4912769;29;20163;-65
2023/09/03 09:05:02;;;;;;;19.13;5.28;;;;;;;35.52;nan;97769.09;4920499;29;20071;-64
2023/09/03 09:07:32;;;;;;;19.83;4.57;;;;;;;35.51;nan;97771.06;4919458;29;20056;-65
2023/09/03 09:10:10;;;;;;;18.88;5.25;;;;;;;35.53;nan;97762.41;4920075;29;20787;-66
2023/09/03 09:13:07;;;;;;;24.95;4.85;;;;;;;35.54;nan;97758.47;4920092;29;20827;-65
2023/09/03 09:15:42;;;;;;;19.30;5.03;;;;;;;35.41;nan;97754.41;4918675;29;20070;-65
2023/09/03 09:18:12;;;;;;;15.05;4.32;;;;;;;35.42;nan;97745.78;4920856;29;20044;-65
2023/09/03 09:20:41;;;;;;;16.55;4.57;;;;;;;35.47;nan;97747.41;4918009;29;20059;-65
2023/09/03 09:23:10;;;;;;;16.08;4.63;;;;;;;35.48;nan;97749.00;4918557;29;20059;-65
2023/09/03 09:25:41;;;;;;;17.85;4.65;;;;;;;35.41;nan;97735.13;4920134;29;20499;-65
2023/09/03 09:28:13;;;;;;;16.92;4.10;;;;;;;35.39;nan;97743.00;4920373;29;20043;-65
2023/09/03 09:30:56;;;;;;;18.30;4.13;;;;;;;35.36;nan;97744.53;4902251;29;20054;-66
2023/09/03 09:33:26;;;;;;;;;;;;;;;35.27;nan;97743.28;4921763;29;20829;-66
2023/09/03 09:36:11;;;;;;;21.10;5.53;;;;;;;35.26;nan;97719.66;4908156;29;19938;-66
2023/09/03 09:38:40;;;;;;;14.95;3.97;;;;;;;35.28;nan;97731.88;4909574;29;20060;-66
2023/09/03 09:41:26;;;;;;;12.68;3.92;;;;;;;35.30;nan;97726.78;4919819;29;20051;-66
2023/09/03 09:43:59;;;;;;;21.25;4.40;;;;;;;35.31;nan;97728.38;4923147;29;20047;-66
2023/09/03 09:46:30;;;;;;;23.60;4.15;;;;;;;35.29;nan;97729.91;4918269;29;20048;-66
2023/09/03 09:49:01;;;;;;;30.05;4.65;;;;;;;35.20;nan;97724.72;4920870;29;20067;-66
2023/09/03 09:51:31;;;;;;;14.70;4.25;;;;;;;35.10;nan;97717.88;4918966;29;20570;-66
2023/09/03 09:54:03;;;;;;;13.15;3.47;;;;;;;35.13;nan;97716.38;4920446;29;20123;-66
2023/09/03 09:56:37;;;;;;;12.43;3.13;;;;;;;35.21;nan;97720.00;4917655;29;20054;-67
2023/09/03 09:59:11;;;;;;;11.10;3.22;;;;;;;35.25;nan;97716.13;4920205;29;20054;-66
2023/09/03 10:01:49;;;;;;;14.27;3.78;;;;;;;35.21;nan;97717.25;4918444;29;20106;-66
2023/09/03 10:04:28;;;;;;;18.10;3.70;;;;;;;35.18;nan;97715.25;4918420;29;20056;-66
2023/09/03 10:06:57;;;;;;;16.15;4.75;;;;;;;35.19;nan;97709.34;4915191;29;20512;-66
2023/09/03 10:09:27;;;;;;;13.32;3.92;;;;;;;35.18;nan;97705.03;4921074;29;20059;-66
2023/09/03 10:11:57;;;;;;;17.00;4.82;;;;;;;35.18;nan;97702.28;4911703;29;20067;-66
2023/09/03 10:14:26;;;;;;;28.00;4.30;;;;;;;35.07;nan;97704.88;4919673;29;20799;-67
2023/09/03 10:16:59;;;;;;;14.60;4.85;;;;;;;35.08;nan;97711.19;4914965;29;20063;-66
2023/09/03 10:19:53;;;;;;;25.95;5.53;;;;;;;35.11;nan;97702.16;4915774;29;20059;-67
2023/09/03 10:22:25;;;;;;;22.08;5.00;;;;;;;35.12;nan;97692.75;4917851;29;20051;-66
2023/09/03 10:25:00;;;;;;;20.83;4.53;;;;;;;35.04;nan;97693.84;4896271;29;20056;-66
2023/09/03 10:27:35;;;;;;;19.23;5.50;;;;;;;35.05;nan;97695.44;4908610;29;20155;-66
2023/09/03 10:30:09;;;;;;;12.43;4.90;;;;;;;35.06;nan;97686.78;4913237;29;20043;-66
2023/09/03 10:32:41;;;;;;;13.50;3.80;;;;;;;35.07;nan;97688.38;4891334;29;20068;-66
2023/09/03 10:35:12;;;;;;;22.05;4.53;;;;;;;34.95;nan;97683.16;4915945;29;20477;-66
2023/09/03 10:37:42;;;;;;;16.55;4.50;;;;;;;35.00;nan;97671.00;4907767;29;20607;-67
2023/09/03 10:40:21;;;;;;;16.58;5.00;;;;;;;34.99;nan;97680.44;4894778;29;20588;-65
2023/09/03 10:42:52;;;;;;;16.00;4.40;;;;;;;34.98;nan;97679.63;4894712;29;20044;-66
2023/09/03 10:45:22;;;;;;;12.15;3.92;;;;;;;34.99;nan;97663.91;4902305;29;20056;-66
2023/09/03 10:48:02;;;;;;;14.88;5.30;;;;;;;34.94;nan;97669.75;4907812;29;20060;-65
2023/09/03 10:50:42;;;;;;;17.38;5.80;;;;;;;34.96;nan;97662.72;4904476;29;20759;-65
2023/09/03 10:53:35;;;;;;;24.08;5.28;;;;;;;34.99;nan;97661.16;4902372;29;20112;-74
2023/09/03 10:56:13;;;;;;;13.10;4.55;;;;;;;34.97;nan;97661.53;4904830;29;20055;-74
2023/09/03 10:59:00;;;;;;;22.73;6.03;;;;;;;34.93;nan;97657.94;4904829;29;20048;-74
2023/09/03 11:01:34;;;;;;;21.08;4.63;;;;;;;34.89;nan;97667.34;4911328;29;20052;-74
2023/09/03 11:04:04;;;;;;;20.52;4.65;;;;;;;34.89;nan;97661.84;4912010;29;20060;-73
2023/09/03 11:06:35;;;;;;;15.45;4.65;;;;;;;34.86;nan;97662.59;4908513;29;20050;-75
2023/09/03 11:09:06;;;;;;;14.23;4.97;;;;;;;34.83;nan;97663.34;4906693;29;20099;-74
2023/09/03 11:11:38;;;;;;;14.25;4.30;;;;;;;34.80;nan;97664.88;4907936;29;20044;-74
2023/09/03 11:14:10;;;;;;;15.07;4.28;;;;;;;34.75;nan;97654.22;4907552;29;20066;-71
2023/09/03 11:16:40;;;;;;;14.83;4.50;;;;;;;34.69;nan;97651.03;4565113;29;10000351;-73
2023/09/03 11:19:09;;;;;;;25.65;6.32;;;;;;;34.66;nan;97649.00;4903235;29;20134;-75
2023/09/03 11:21:39;;;;;;;15.48;4.75;;;;;;;34.67;nan;97650.59;4914599;29;20052;-72
2023/09/03 11:24:19;;;;;;;25.05;5.68;;;;;;;34.62;nan;97653.66;4910217;29;20595;-74
2023/09/03 11:27:04;;;;;;;23.00;4.75;;;;;;;34.52;nan;97640.56;4888114;29;20562;-76
2023/09/03 11:29:34;;;;;;;27.25;5.90;;;;;;;34.48;nan;97639.72;4905546;29;20051;-75
2023/09/03 11:32:03;;;;;;;21.98;5.43;;;;;;;34.48;nan;97644.44;4902584;29;20051;-75
2023/09/03 11:34:32;;;;;;;21.85;5.80;;;;;;;34.48;nan;97638.94;4901913;29;20056;-76
2023/09/03 11:37:03;;;;;;;22.27;5.53;;;;;;;34.44;nan;97636.16;4904190;29;20048;-75
2023/09/03 11:39:37;;;;;;;12.75;4.25;;;;;;;34.38;nan;97640.41;4903042;29;20155;-73
2023/09/03 11:42:13;;;;;;;26.27;5.70;;;;;;;34.31;nan;97631.28;4901724;29;20055;-75
2023/09/03 11:44:44;;;;;;;20.15;6.20;;;;;;;34.18;nan;97634.25;4894654;29;20734;-75
2023/09/03 11:47:13;;;;;;;14.15;5.15;;;;;;;34.18;nan;97627.97;4899722;29;20095;-75
2023/09/03 11:49:47;;;;;;;17.15;5.65;;;;;;;34.16;nan;97630.28;4904482;29;20266;-75
2023/09/03 11:52:17;;;;;;;33.45;7.38;;;;;;;34.12;nan;97632.97;4905897;29;20075;-75
2023/09/03 11:54:48;;;;;;;22.38;5.60;;;;;;;34.06;nan;97636.44;4910324;29;20048;-74
2023/09/03 11:57:19;;;;;;;23.40;5.30;;;;;;;34.04;nan;97634.03;4902446;29;20055;-73
2023/09/03 12:00:07;;;;;;;25.27;5.78;;;;;;;34.03;nan;97629.72;4904849;29;20554;-71
2023/09/03 12:02:37;;;;;;;20.42;5.30;;;;;;;34.04;nan;97630.50;4904193;29;20052;-71